createdAt,value
2023-02-23T00:02:47.497Z,100904.23
2023-02-23T00:07:52.306Z,100902.61
2023-02-23T00:12:55.401Z,100898.80
2023-02-23T00:17:58.941Z,100893.70
2023-02-23T00:23:02.450Z,100887.86
2023-02-23T00:28:07.505Z,100889.47
2023-02-23T00:33:10.758Z,100884.39
2023-02-23T00:38:16.406Z,100879.16
2023-02-23T00:43:20.278Z,100878.88
2023-02-23T00:48:24.427Z,100879.14
2023-02-23T00:53:27.941Z,100873.03
2023-02-23T00:58:31.601Z,100866.20
2023-02-23T01:03:35.033Z,100857.29
2023-02-23T01:08:40.841Z,100859.23
2023-02-23T01:13:44.961Z,100856.19
2023-02-23T01:18:49.088Z,100849.42
2023-02-23T01:23:52.908Z,100853.39
2023-02-23T01:28:58.047Z,100852.20
2023-02-23T01:34:02.157Z,100846.84
2023-02-23T01:39:08.036Z,100845.66
2023-02-23T01:44:14.333Z,100845.77
2023-02-23T01:49:20.635Z,100842.98
2023-02-23T01:54:31.313Z,100836.13
2023-02-23T01:59:44.910Z,100834.98
2023-02-23T02:04:52.397Z,100833.89
2023-02-23T02:10:12.426Z,100831.20
2023-02-23T02:15:18.880Z,100823.83
2023-02-23T02:20:33.253Z,100826.27
2023-02-23T02:25:56.979Z,100828.89
2023-02-23T02:31:17.463Z,100830.24
2023-02-23T02:36:27.138Z,100831.54
2023-02-23T02:41:37.203Z,100827.35
2023-02-23T02:46:42.186Z,100823.23
2023-02-23T02:52:08.406Z,100822.98
2023-02-23T02:57:16.105Z,100823.52
2023-02-23T03:02:40.040Z,100825.77
2023-02-23T03:08:20.416Z,100820.73
2023-02-23T03:13:56.570Z,100819.75
2023-02-23T03:19:20.259Z,100819.42
2023-02-23T03:25:06.516Z,100822.66
2023-02-23T03:30:58.078Z,100823.22
2023-02-23T03:36:33.343Z,100818.77
2023-02-23T03:42:00.264Z,100821.29
2023-02-23T03:47:24.917Z,100825.53
2023-02-23T03:52:51.157Z,100821.84
2023-02-23T03:58:15.108Z,100820.83
2023-02-23T04:03:37.928Z,100823.39
2023-02-23T04:09:00.544Z,100822.73
2023-02-23T04:14:06.486Z,100818.66
2023-02-23T04:19:09.782Z,100817.77
2023-02-23T04:24:13.037Z,100819.95
2023-02-23T04:29:16.342Z,100823.19
2023-02-23T04:34:19.476Z,100818.86
2023-02-23T04:39:22.681Z,100815.77
2023-02-23T04:44:25.885Z,100809.95
2023-02-23T04:49:29.038Z,100802.79
2023-02-23T04:54:32.301Z,100802.52
2023-02-23T04:59:35.987Z,100799.44
2023-02-23T05:04:42.927Z,100802.70
2023-02-23T05:09:46.185Z,100801.31
2023-02-23T05:14:49.951Z,100800.85
2023-02-23T05:19:53.794Z,100800.83
2023-02-23T05:24:57.636Z,100796.79
2023-02-23T05:30:01.664Z,100793.79
2023-02-23T05:35:05.014Z,100794.91
2023-02-23T05:40:08.658Z,100793.17
2023-02-23T05:45:11.767Z,100794.91
2023-02-23T05:50:14.871Z,100801.59
2023-02-23T05:55:18.108Z,100799.15
2023-02-23T06:00:21.561Z,100799.73
2023-02-23T06:05:24.845Z,100805.90
2023-02-23T06:10:28.159Z,100802.96
2023-02-23T06:15:31.864Z,100805.19
2023-02-23T06:20:35.850Z,100803.27
2023-02-23T06:25:38.947Z,100803.52
2023-02-23T06:30:42.409Z,100803.38
2023-02-23T06:35:46.619Z,100806.86
2023-02-23T06:40:49.845Z,100811.25
2023-02-23T06:45:53.142Z,100809.27
2023-02-23T06:50:58.422Z,100810.88
2023-02-23T06:56:03.301Z,100810.06
2023-02-23T07:01:06.804Z,100815.00
2023-02-23T07:06:10.075Z,100816.20
2023-02-23T07:11:15.106Z,100815.34
2023-02-23T07:16:18.572Z,100816.42
2023-02-23T07:21:21.698Z,100809.38
2023-02-23T07:26:25.106Z,100801.66
2023-02-23T07:31:28.843Z,100801.86
2023-02-23T07:36:32.059Z,100801.27
2023-02-23T07:41:35.621Z,100797.41
2023-02-23T07:46:39.048Z,100791.95
2023-02-23T07:51:42.461Z,100787.73
2023-02-23T07:56:45.941Z,100783.85
2023-02-23T08:01:49.347Z,100777.59
2023-02-23T08:06:52.581Z,100772.16
2023-02-23T08:11:55.800Z,100759.91
2023-02-23T08:17:01.833Z,100762.60
2023-02-23T08:22:06.484Z,100752.50
2023-02-23T08:27:10.959Z,100749.95
2023-02-23T08:32:14.472Z,100748.95
2023-02-23T08:37:17.803Z,100747.13
2023-02-23T08:42:21.302Z,100743.71
2023-02-23T08:47:24.989Z,100739.83
2023-02-23T08:52:29.129Z,100738.84
2023-02-23T08:57:33.463Z,100734.08
2023-02-23T09:02:36.743Z,100730.45
2023-02-23T09:07:40.817Z,100729.60
2023-02-23T09:12:44.051Z,100724.18
2023-02-23T09:17:48.092Z,100725.70
2023-02-23T09:22:51.530Z,100718.77
2023-02-23T09:27:57.199Z,100715.96
2023-02-23T09:33:00.522Z,100705.23
2023-02-23T09:38:05.083Z,100696.84
2023-02-23T09:43:11.717Z,100692.39
2023-02-23T09:48:20.792Z,100689.32
2023-02-23T09:53:40.821Z,100686.20
2023-02-23T09:58:44.890Z,100686.02
2023-02-23T10:04:11.122Z,100677.09
2023-02-23T10:09:19.561Z,100671.26
2023-02-23T10:14:22.916Z,100662.66
2023-02-23T10:19:32.549Z,100661.30
2023-02-23T10:24:57.654Z,100655.82
2023-02-23T10:30:23.185Z,100646.05
2023-02-23T10:35:27.737Z,100634.70
2023-02-23T10:40:33.217Z,100629.20
2023-02-23T10:45:39.783Z,100621.44
2023-02-23T10:50:45.879Z,100616.44
2023-02-23T10:56:13.907Z,100600.91
2023-02-23T11:01:33.001Z,100592.95
2023-02-23T11:06:40.780Z,100581.55
2023-02-23T11:11:55.668Z,100575.68
2023-02-23T11:16:59.933Z,100570.33
2023-02-23T11:22:07.150Z,100559.10
2023-02-23T11:27:21.161Z,100556.51
2023-02-23T11:32:28.336Z,100545.95
2023-02-23T11:37:31.653Z,100537.11
2023-02-23T11:42:34.905Z,100528.45
2023-02-23T11:47:44.779Z,100520.27
2023-02-23T11:52:51.839Z,100512.62
2023-02-23T11:58:08.438Z,100506.54
2023-02-23T12:03:17.592Z,100498.75
2023-02-23T12:08:28.080Z,100494.94
2023-02-23T12:13:34.566Z,100486.45
2023-02-23T12:18:40.462Z,100473.61
2023-02-23T12:23:48.859Z,100470.63
2023-02-23T12:29:10.352Z,100460.06
2023-02-23T12:34:19.400Z,100451.91
2023-02-23T12:39:31.943Z,100441.02
2023-02-23T12:44:40.722Z,100440.46
2023-02-23T12:49:52.893Z,100426.96
2023-02-23T12:54:56.263Z,100424.35
2023-02-23T13:00:24.288Z,100417.95
2023-02-23T13:05:50.704Z,100408.63
2023-02-23T13:10:54.261Z,100403.95
2023-02-23T13:16:17.761Z,100397.86
2023-02-23T13:21:28.573Z,100391.77
2023-02-23T13:26:54.749Z,100390.92
2023-02-23T13:32:00.845Z,100382.44
2023-02-23T13:37:06.114Z,100372.89
2023-02-23T13:42:18.454Z,100361.42
2023-02-23T13:47:33.753Z,100356.20
2023-02-23T13:52:42.223Z,100351.14
2023-02-23T13:57:46.337Z,100342.46
2023-02-23T14:02:50.534Z,100332.77
2023-02-23T14:07:56.196Z,100326.55
2023-02-23T14:13:35.232Z,100327.41
2023-02-23T14:19:19.899Z,100315.64
2023-02-23T14:24:24.195Z,100313.22
2023-02-23T14:29:29.146Z,100304.56
2023-02-23T14:34:46.130Z,100299.37
2023-02-23T14:39:50.837Z,100295.06
2023-02-23T14:44:55.540Z,100290.56
2023-02-23T14:50:00.513Z,100289.02
2023-02-23T14:55:07.774Z,100284.20
2023-02-23T15:00:39.110Z,100276.98
2023-02-23T15:05:44.045Z,100270.65
2023-02-23T15:10:49.187Z,100264.98
2023-02-23T15:15:53.168Z,100262.77
2023-02-23T15:21:02.521Z,100254.85
2023-02-23T15:26:40.524Z,100248.16
2023-02-23T15:31:52.724Z,100245.11
2023-02-23T15:36:58.357Z,100238.77
2023-02-23T15:42:02.174Z,100229.85
2023-02-23T15:47:09.867Z,100222.68
2023-02-23T15:52:19.565Z,100217.21
2023-02-23T15:57:30.526Z,100211.19
2023-02-23T16:02:35.951Z,100214.14
2023-02-23T16:07:43.320Z,100212.05
2023-02-23T16:12:48.921Z,100210.20
2023-02-23T16:17:57.893Z,100209.89
2023-02-23T16:23:02.938Z,100209.27
2023-02-23T16:28:09.886Z,100205.70
2023-02-23T16:33:21.958Z,100206.84
2023-02-23T16:38:34.037Z,100205.36
2023-02-23T16:43:37.597Z,100199.55
2023-02-23T16:48:40.854Z,100198.06
2023-02-23T16:53:44.624Z,100195.18
2023-02-23T16:58:54.045Z,100192.13
2023-02-23T17:03:59.227Z,100185.10
2023-02-23T17:09:02.562Z,100179.08
2023-02-23T17:14:05.862Z,100170.16
2023-02-23T17:19:08.990Z,100159.84
2023-02-23T17:24:12.209Z,100157.12
2023-02-23T17:29:15.700Z,100159.38
2023-02-23T17:34:19.217Z,100153.17
2023-02-23T17:39:22.547Z,100146.27
2023-02-23T17:44:25.917Z,100143.70
2023-02-23T17:49:29.082Z,100134.20
2023-02-23T17:54:32.346Z,100123.36
2023-02-23T17:59:35.627Z,100113.19
2023-02-23T18:04:38.991Z,100101.11
2023-02-23T18:09:42.468Z,100094.20
2023-02-23T18:14:46.195Z,100089.52
2023-02-23T18:19:51.309Z,100085.48
2023-02-23T18:24:57.369Z,100078.55
2023-02-23T18:30:01.565Z,100071.42
2023-02-23T18:35:05.013Z,100063.80
2023-02-23T18:40:08.664Z,100060.20
2023-02-23T18:45:13.098Z,100052.80
2023-02-23T18:50:19.488Z,100046.98
2023-02-23T18:55:23.553Z,100038.77
2023-02-23T19:00:27.477Z,100026.38
2023-02-23T19:05:31.109Z,100020.21
2023-02-23T19:10:34.655Z,100012.83
2023-02-23T19:15:40.957Z,100007.33
2023-02-23T19:20:44.203Z,100000.95
2023-02-23T19:25:49.109Z,99996.66
2023-02-23T19:31:00.558Z,99992.52
2023-02-23T19:36:05.494Z,99980.83
2023-02-23T19:41:09.836Z,99974.80
2023-02-23T19:46:17.347Z,99969.13
2023-02-23T19:51:21.194Z,99962.06
2023-02-23T19:56:25.472Z,99953.25
2023-02-23T20:01:30.074Z,99947.68
2023-02-23T20:06:34.987Z,99937.45
2023-02-23T20:11:38.517Z,99935.85
2023-02-23T20:16:41.813Z,99933.79
2023-02-23T20:21:45.135Z,99925.02
2023-02-23T20:26:49.515Z,99917.67
2023-02-23T20:31:52.878Z,99912.04
2023-02-23T20:36:56.234Z,99902.66
2023-02-23T20:41:59.581Z,99897.20
2023-02-23T20:47:03.341Z,99884.34
2023-02-23T20:52:06.489Z,99879.39
2023-02-23T20:57:09.775Z,99869.27
2023-02-23T21:02:15.197Z,99865.02
2023-02-23T21:07:18.526Z,99856.25
2023-02-23T21:12:22.094Z,99850.95
2023-02-23T21:17:25.501Z,99843.58
2023-02-23T21:22:28.808Z,99840.84
2023-02-23T21:27:32.602Z,99834.67
2023-02-23T21:32:41.434Z,99831.55
2023-02-23T21:37:45.408Z,99818.98
2023-02-23T21:42:49.310Z,99810.97
2023-02-23T21:47:55.614Z,99803.66
2023-02-23T21:52:59.013Z,99794.14
2023-02-23T21:58:02.949Z,99780.38
2023-02-23T22:03:06.571Z,99773.01
2023-02-23T22:08:15.850Z,99764.45
2023-02-23T22:13:22.206Z,99757.43
2023-02-23T22:18:25.458Z,99749.23
2023-02-23T22:23:28.777Z,99744.80
2023-02-23T22:28:33.238Z,99734.83
2023-02-23T22:33:38.042Z,99728.98
2023-02-23T22:38:41.779Z,99722.30
2023-02-23T22:43:46.224Z,99721.11
2023-02-23T22:48:52.544Z,99719.59
2023-02-23T22:53:55.727Z,99707.56
2023-02-23T22:59:06.552Z,99703.63
2023-02-23T23:04:10.645Z,99697.27
2023-02-23T23:09:16.589Z,99688.67
2023-02-23T23:14:24.494Z,99683.01
2023-02-23T23:19:29.329Z,99671.47
2023-02-23T23:24:33.025Z,99659.42
2023-02-23T23:29:38.403Z,99650.80
2023-02-23T23:34:45.309Z,99642.36
2023-02-23T23:40:00.341Z,99638.36
2023-02-23T23:45:06.211Z,99631.11
2023-02-23T23:50:10.915Z,99626.90
2023-02-23T23:55:15.262Z,99621.09
